sensor_id;sensor_type;location;lat;lon;timestamp;temperature;humidity
67750;DHT22;54550;48.838;8.828;2023-12-29T00:01:19;7.50;99.90
67750;DHT22;54550;48.838;8.828;2023-12-29T00:03:44;7.40;99.90
67750;DHT22;54550;48.838;8.828;2023-12-29T00:06:10;7.40;99.90
67750;DHT22;54550;48.838;8.828;2023-12-29T00:08:36;7.40;99.90
67750;DHT22;54550;48.838;8.828;2023-12-29T00:11:01;7.40;99.90
67750;DHT22;54550;48.838;8.828;2023-12-29T00:13:27;7.40;99.90
67750;DHT22;54550;48.838;8.828;2023-12-29T00:15:53;7.40;99.90
67750;DHT22;54550;48.838;8.828;2023-12-29T00:18:19;7.40;99.90
67750;DHT22;54550;48.838;8.828;2023-12-29T00:20:44;7.30;99.90
67750;DHT22;54550;48.838;8.828;2023-12-29T00:23:10;7.30;99.90
67750;DHT22;54550;48.838;8.828;2023-12-29T00:25:38;7.30;99.90
67750;DHT22;54550;48.838;8.828;2023-12-29T00:28:04;7.30;99.90
67750;DHT22;54550;48.838;8.828;2023-12-29T00:30:30;7.30;99.90
67750;DHT22;54550;48.838;8.828;2023-12-29T00:32:55;7.30;99.90
67750;DHT22;54550;48.838;8.828;2023-12-29T00:35:21;7.30;99.90
67750;DHT22;54550;48.838;8.828;2023-12-29T00:37:46;7.30;99.90
67750;DHT22;54550;48.838;8.828;2023-12-29T00:40:12;7.30;99.90
67750;DHT22;54550;48.838;8.828;2023-12-29T00:42:37;7.20;99.90
67750;DHT22;54550;48.838;8.828;2023-12-29T00:45:03;7.20;99.90
67750;DHT22;54550;48.838;8.828;2023-12-29T00:47:28;7.10;99.90
67750;DHT22;54550;48.838;8.828;2023-12-29T00:49:54;7.10;99.90
67750;DHT22;54550;48.838;8.828;2023-12-29T00:52:19;7.00;99.90
67750;DHT22;54550;48.838;8.828;2023-12-29T00:54:45;7.00;99.90
67750;DHT22;54550;48.838;8.828;2023-12-29T00:57:10;7.00;99.90
67750;DHT22;54550;48.838;8.828;2023-12-29T00:59:39;7.00;99.90
67750;DHT22;54550;48.838;8.828;2023-12-29T01:02:05;7.00;99.90
67750;DHT22;54550;48.838;8.828;2023-12-29T01:04:30;7.00;99.90
67750;DHT22;54550;48.838;8.828;2023-12-29T01:06:56;7.00;99.90
67750;DHT22;54550;48.838;8.828;2023-12-29T01:09:21;7.00;99.90
67750;DHT22;54550;48.838;8.828;2023-12-29T01:11:47;7.00;99.90
67750;DHT22;54550;48.838;8.828;2023-12-29T01:14:12;6.90;99.90
67750;DHT22;54550;48.838;8.828;2023-12-29T01:16:39;7.00;99.90
67750;DHT22;54550;48.838;8.828;2023-12-29T01:19:05;6.90;99.90
67750;DHT22;54550;48.838;8.828;2023-12-29T01:21:30;7.00;99.90
67750;DHT22;54550;48.838;8.828;2023-12-29T01:23:59;6.90;99.90
67750;DHT22;54550;48.838;8.828;2023-12-29T01:26:25;6.90;99.90
67750;DHT22;54550;48.838;8.828;2023-12-29T01:28:50;6.90;99.90
67750;DHT22;54550;48.838;8.828;2023-12-29T01:31:16;6.90;99.90
67750;DHT22;54550;48.838;8.828;2023-12-29T01:33:41;6.90;99.90
67750;DHT22;54550;48.838;8.828;2023-12-29T01:36:06;6.90;99.90
67750;DHT22;54550;48.838;8.828;2023-12-29T01:38:32;6.90;99.90
67750;DHT22;54550;48.838;8.828;2023-12-29T01:40:58;6.90;99.90
67750;DHT22;54550;48.838;8.828;2023-12-29T01:43:23;6.90;99.90
67750;DHT22;54550;48.838;8.828;2023-12-29T01:45:48;6.90;99.90
67750;DHT22;54550;48.838;8.828;2023-12-29T01:48:14;6.90;99.90
67750;DHT22;54550;48.838;8.828;2023-12-29T01:50:39;7.00;99.90
67750;DHT22;54550;48.838;8.828;2023-12-29T01:53:06;6.90;99.90
67750;DHT22;54550;48.838;8.828;2023-12-29T01:55:32;7.00;99.90
67750;DHT22;54550;48.838;8.828;2023-12-29T01:57:57;7.00;99.90
67750;DHT22;54550;48.838;8.828;2023-12-29T02:00:23;7.00;99.90
67750;DHT22;54550;48.838;8.828;2023-12-29T02:02:49;7.00;99.90
67750;DHT22;54550;48.838;8.828;2023-12-29T02:05:15;7.00;99.90
67750;DHT22;54550;48.838;8.828;2023-12-29T02:07:41;7.10;99.90
67750;DHT22;54550;48.838;8.828;2023-12-29T02:10:07;7.10;99.90
67750;DHT22;54550;48.838;8.828;2023-12-29T02:12:34;7.10;99.90
67750;DHT22;54550;48.838;8.828;2023-12-29T02:14:59;7.10;99.90
67750;DHT22;54550;48.838;8.828;2023-12-29T02:17:31;7.10;99.90
67750;DHT22;54550;48.838;8.828;2023-12-29T02:19:58;7.20;99.90
67750;DHT22;54550;48.838;8.828;2023-12-29T02:22:24;7.20;99.90
67750;DHT22;54550;48.838;8.828;2023-12-29T02:24:49;7.20;99.90
67750;DHT22;54550;48.838;8.828;2023-12-29T02:27:20;7.20;99.90
67750;DHT22;54550;48.838;8.828;2023-12-29T02:29:56;7.10;99.90
67750;DHT22;54550;48.838;8.828;2023-12-29T02:32:27;7.10;99.90
67750;DHT22;54550;48.838;8.828;2023-12-29T02:34:53;7.10;99.90
67750;DHT22;54550;48.838;8.828;2023-12-29T02:37:19;7.10;99.90
67750;DHT22;54550;48.838;8.828;2023-12-29T02:39:45;7.10;99.90
67750;DHT22;54550;48.838;8.828;2023-12-29T02:42:11;7.10;99.90
67750;DHT22;54550;48.838;8.828;2023-12-29T02:44:36;7.10;99.90
67750;DHT22;54550;48.838;8.828;2023-12-29T02:47:02;7.00;99.90
67750;DHT22;54550;48.838;8.828;2023-12-29T02:49:29;7.00;99.90
67750;DHT22;54550;48.838;8.828;2023-12-29T02:51:54;7.00;99.90
67750;DHT22;54550;48.838;8.828;2023-12-29T02:54:20;7.00;99.90
67750;DHT22;54550;48.838;8.828;2023-12-29T02:56:45;7.00;99.90
67750;DHT22;54550;48.838;8.828;2023-12-29T02:59:11;7.00;99.90
67750;DHT22;54550;48.838;8.828;2023-12-29T03:01:36;7.00;99.90
67750;DHT22;54550;48.838;8.828;2023-12-29T03:04:01;7.00;99.90
67750;DHT22;54550;48.838;8.828;2023-12-29T03:06:27;7.00;99.90
67750;DHT22;54550;48.838;8.828;2023-12-29T03:08:52;7.00;99.90
67750;DHT22;54550;48.838;8.828;2023-12-29T03:11:18;7.00;99.90
67750;DHT22;54550;48.838;8.828;2023-12-29T03:13:43;7.10;99.90
67750;DHT22;54550;48.838;8.828;2023-12-29T03:16:09;7.10;99.90
67750;DHT22;54550;48.838;8.828;2023-12-29T03:18:34;7.10;99.90
67750;DHT22;54550;48.838;8.828;2023-12-29T03:21:04;7.00;99.90
67750;DHT22;54550;48.838;8.828;2023-12-29T03:23:29;7.00;99.90
67750;DHT22;54550;48.838;8.828;2023-12-29T03:25:55;7.00;99.90
67750;DHT22;54550;48.838;8.828;2023-12-29T03:28:20;7.00;99.90
67750;DHT22;54550;48.838;8.828;2023-12-29T03:30:46;6.90;99.90
67750;DHT22;54550;48.838;8.828;2023-12-29T03:33:11;6.90;99.90
67750;DHT22;54550;48.838;8.828;2023-12-29T03:35:37;6.90;99.90
67750;DHT22;54550;48.838;8.828;2023-12-29T03:38:02;6.90;99.90
67750;DHT22;54550;48.838;8.828;2023-12-29T03:40:28;6.90;99.90
67750;DHT22;54550;48.838;8.828;2023-12-29T03:42:53;6.80;99.90
67750;DHT22;54550;48.838;8.828;2023-12-29T03:45:19;6.80;99.90
67750;DHT22;54550;48.838;8.828;2023-12-29T03:47:44;6.80;99.90
67750;DHT22;54550;48.838;8.828;2023-12-29T03:50:09;6.80;99.90
67750;DHT22;54550;48.838;8.828;2023-12-29T03:52:35;6.90;99.90
67750;DHT22;54550;48.838;8.828;2023-12-29T03:55:00;6.80;99.90
67750;DHT22;54550;48.838;8.828;2023-12-29T03:57:26;6.90;99.90
67750;DHT22;54550;48.838;8.828;2023-12-29T03:59:51;6.80;99.90
67750;DHT22;54550;48.838;8.828;2023-12-29T04:02:17;6.80;99.90
67750;DHT22;54550;48.838;8.828;2023-12-29T04:04:43;6.80;99.90
67750;DHT22;54550;48.838;8.828;2023-12-29T04:07:08;6.80;99.90
67750;DHT22;54550;48.838;8.828;2023-12-29T04:09:33;6.80;99.90
67750;DHT22;54550;48.838;8.828;2023-12-29T04:11:59;6.80;99.90
67750;DHT22;54550;48.838;8.828;2023-12-29T04:14:24;6.80;99.90
67750;DHT22;54550;48.838;8.828;2023-12-29T04:16:50;6.80;99.90
67750;DHT22;54550;48.838;8.828;2023-12-29T04:19:15;6.80;99.90
67750;DHT22;54550;48.838;8.828;2023-12-29T04:21:41;6.80;99.90
67750;DHT22;54550;48.838;8.828;2023-12-29T04:24:06;6.80;99.90
67750;DHT22;54550;48.838;8.828;2023-12-29T04:26:35;6.80;99.90
67750;DHT22;54550;48.838;8.828;2023-12-29T04:29:01;6.80;99.90
67750;DHT22;54550;48.838;8.828;2023-12-29T04:31:26;6.80;99.90
67750;DHT22;54550;48.838;8.828;2023-12-29T04:33:52;6.80;99.90
67750;DHT22;54550;48.838;8.828;2023-12-29T04:36:17;6.80;99.90
67750;DHT22;54550;48.838;8.828;2023-12-29T04:38:43;6.80;99.90
67750;DHT22;54550;48.838;8.828;2023-12-29T04:41:08;6.80;99.90
67750;DHT22;54550;48.838;8.828;2023-12-29T04:43:33;6.80;99.90
67750;DHT22;54550;48.838;8.828;2023-12-29T04:45:59;6.80;99.90
67750;DHT22;54550;48.838;8.828;2023-12-29T04:48:25;6.80;99.90
67750;DHT22;54550;48.838;8.828;2023-12-29T04:50:51;6.80;99.90
67750;DHT22;54550;48.838;8.828;2023-12-29T04:53:16;6.80;99.90
67750;DHT22;54550;48.838;8.828;2023-12-29T04:55:42;6.80;99.90
67750;DHT22;54550;48.838;8.828;2023-12-29T04:58:07;6.80;99.90
67750;DHT22;54550;48.838;8.828;2023-12-29T05:00:32;6.80;99.90
67750;DHT22;54550;48.838;8.828;2023-12-29T05:02:58;6.80;99.90
67750;DHT22;54550;48.838;8.828;2023-12-29T05:05:24;6.80;99.90
67750;DHT22;54550;48.838;8.828;2023-12-29T05:07:49;6.80;99.90
67750;DHT22;54550;48.838;8.828;2023-12-29T05:10:15;6.80;99.90
67750;DHT22;54550;48.838;8.828;2023-12-29T05:12:40;6.80;99.90
67750;DHT22;54550;48.838;8.828;2023-12-29T05:15:06;6.80;99.90
67750;DHT22;54550;48.838;8.828;2023-12-29T05:17:31;6.80;99.90
67750;DHT22;54550;48.838;8.828;2023-12-29T05:19:57;6.80;99.90
67750;DHT22;54550;48.838;8.828;2023-12-29T05:22:22;6.80;99.90
67750;DHT22;54550;48.838;8.828;2023-12-29T05:24:48;6.80;99.90
67750;DHT22;54550;48.838;8.828;2023-12-29T05:27:13;6.80;99.90
67750;DHT22;54550;48.838;8.828;2023-12-29T05:29:39;6.90;99.90
67750;DHT22;54550;48.838;8.828;2023-12-29T05:32:05;6.90;99.90
67750;DHT22;54550;48.838;8.828;2023-12-29T05:34:30;6.90;99.90
67750;DHT22;54550;48.838;8.828;2023-12-29T05:36:56;6.90;99.90
67750;DHT22;54550;48.838;8.828;2023-12-29T05:39:21;6.90;99.90
67750;DHT22;54550;48.838;8.828;2023-12-29T05:41:47;6.90;99.90
67750;DHT22;54550;48.838;8.828;2023-12-29T05:44:12;6.90;99.90
67750;DHT22;54550;48.838;8.828;2023-12-29T05:46:38;6.90;99.90
67750;DHT22;54550;48.838;8.828;2023-12-29T05:49:03;6.90;99.90
67750;DHT22;54550;48.838;8.828;2023-12-29T05:51:29;6.90;99.90
67750;DHT22;54550;48.838;8.828;2023-12-29T05:53:54;6.90;99.90
67750;DHT22;54550;48.838;8.828;2023-12-29T05:56:20;6.90;99.90
67750;DHT22;54550;48.838;8.828;2023-12-29T05:58:45;6.90;99.90
67750;DHT22;54550;48.838;8.828;2023-12-29T06:01:11;6.90;99.90
67750;DHT22;54550;48.838;8.828;2023-12-29T06:03:36;6.90;99.90
67750;DHT22;54550;48.838;8.828;2023-12-29T06:06:02;6.80;99.90
67750;DHT22;54550;48.838;8.828;2023-12-29T06:08:28;6.80;99.90
67750;DHT22;54550;48.838;8.828;2023-12-29T06:10:53;6.80;99.90
67750;DHT22;54550;48.838;8.828;2023-12-29T06:13:19;6.70;99.90
67750;DHT22;54550;48.838;8.828;2023-12-29T06:15:44;6.70;99.90
67750;DHT22;54550;48.838;8.828;2023-12-29T06:18:10;6.70;99.90
67750;DHT22;54550;48.838;8.828;2023-12-29T06:20:35;6.70;99.90
67750;DHT22;54550;48.838;8.828;2023-12-29T06:23:01;6.80;99.90
67750;DHT22;54550;48.838;8.828;2023-12-29T06:25:26;6.80;99.90
67750;DHT22;54550;48.838;8.828;2023-12-29T06:27:53;6.90;99.90
67750;DHT22;54550;48.838;8.828;2023-12-29T06:30:18;6.90;99.90
67750;DHT22;54550;48.838;8.828;2023-12-29T06:32:44;7.00;99.90
67750;DHT22;54550;48.838;8.828;2023-12-29T06:35:09;7.00;99.90
67750;DHT22;54550;48.838;8.828;2023-12-29T06:37:38;7.00;99.90
67750;DHT22;54550;48.838;8.828;2023-12-29T06:40:07;7.10;99.90
67750;DHT22;54550;48.838;8.828;2023-12-29T06:42:33;7.10;99.90
67750;DHT22;54550;48.838;8.828;2023-12-29T06:44:58;7.10;99.90
67750;DHT22;54550;48.838;8.828;2023-12-29T06:47:24;7.20;99.90
67750;DHT22;54550;48.838;8.828;2023-12-29T06:49:49;7.20;99.90
67750;DHT22;54550;48.838;8.828;2023-12-29T06:52:15;7.20;99.90
67750;DHT22;54550;48.838;8.828;2023-12-29T06:54:41;7.20;99.90
67750;DHT22;54550;48.838;8.828;2023-12-29T06:57:06;7.30;99.90
67750;DHT22;54550;48.838;8.828;2023-12-29T06:59:32;7.30;99.90
67750;DHT22;54550;48.838;8.828;2023-12-29T07:01:57;7.30;99.90
67750;DHT22;54550;48.838;8.828;2023-12-29T07:04:23;7.30;99.90
67750;DHT22;54550;48.838;8.828;2023-12-29T07:06:48;7.30;99.90
67750;DHT22;54550;48.838;8.828;2023-12-29T07:09:14;7.40;99.90
67750;DHT22;54550;48.838;8.828;2023-12-29T07:11:40;7.40;99.90
67750;DHT22;54550;48.838;8.828;2023-12-29T07:14:05;7.30;99.90
67750;DHT22;54550;48.838;8.828;2023-12-29T07:16:31;7.30;99.90
67750;DHT22;54550;48.838;8.828;2023-12-29T07:18:56;7.40;99.90
67750;DHT22;54550;48.838;8.828;2023-12-29T07:21:22;7.40;99.90
67750;DHT22;54550;48.838;8.828;2023-12-29T07:23:47;7.40;99.90
67750;DHT22;54550;48.838;8.828;2023-12-29T07:26:13;7.40;99.90
67750;DHT22;54550;48.838;8.828;2023-12-29T07:28:38;7.40;99.90
67750;DHT22;54550;48.838;8.828;2023-12-29T07:31:04;7.40;99.90
67750;DHT22;54550;48.838;8.828;2023-12-29T07:33:29;7.40;99.90
67750;DHT22;54550;48.838;8.828;2023-12-29T07:35:55;7.40;99.90
67750;DHT22;54550;48.838;8.828;2023-12-29T07:38:20;7.40;99.90
67750;DHT22;54550;48.838;8.828;2023-12-29T07:40:46;7.40;99.90
67750;DHT22;54550;48.838;8.828;2023-12-29T07:43:13;7.40;99.90
67750;DHT22;54550;48.838;8.828;2023-12-29T07:45:38;7.40;99.90
67750;DHT22;54550;48.838;8.828;2023-12-29T07:48:04;7.50;99.90
67750;DHT22;54550;48.838;8.828;2023-12-29T07:50:30;7.50;99.90
67750;DHT22;54550;48.838;8.828;2023-12-29T07:52:55;7.50;99.90
67750;DHT22;54550;48.838;8.828;2023-12-29T07:55:21;7.50;99.90
67750;DHT22;54550;48.838;8.828;2023-12-29T07:57:46;7.50;99.90
67750;DHT22;54550;48.838;8.828;2023-12-29T08:00:14;7.50;99.90
67750;DHT22;54550;48.838;8.828;2023-12-29T08:02:40;7.50;99.90
67750;DHT22;54550;48.838;8.828;2023-12-29T08:05:05;7.60;99.90
67750;DHT22;54550;48.838;8.828;2023-12-29T08:07:31;7.60;99.90
67750;DHT22;54550;48.838;8.828;2023-12-29T08:09:57;7.60;99.90
67750;DHT22;54550;48.838;8.828;2023-12-29T08:12:22;7.70;99.90
67750;DHT22;54550;48.838;8.828;2023-12-29T08:14:48;7.70;99.90
67750;DHT22;54550;48.838;8.828;2023-12-29T08:17:13;7.70;99.90
67750;DHT22;54550;48.838;8.828;2023-12-29T08:19:39;7.70;99.90
67750;DHT22;54550;48.838;8.828;2023-12-29T08:22:05;7.70;99.90
67750;DHT22;54550;48.838;8.828;2023-12-29T08:24:30;7.70;99.90
67750;DHT22;54550;48.838;8.828;2023-12-29T08:27:03;7.80;99.90
67750;DHT22;54550;48.838;8.828;2023-12-29T08:29:29;7.80;99.90
67750;DHT22;54550;48.838;8.828;2023-12-29T08:31:54;7.80;99.90
67750;DHT22;54550;48.838;8.828;2023-12-29T08:34:19;7.80;99.90
67750;DHT22;54550;48.838;8.828;2023-12-29T08:36:45;7.90;99.90
67750;DHT22;54550;48.838;8.828;2023-12-29T08:39:10;7.90;99.90
67750;DHT22;54550;48.838;8.828;2023-12-29T08:41:37;7.90;99.90
67750;DHT22;54550;48.838;8.828;2023-12-29T08:44:02;7.90;99.90
67750;DHT22;54550;48.838;8.828;2023-12-29T08:46:29;7.90;99.90
67750;DHT22;54550;48.838;8.828;2023-12-29T08:48:54;7.90;99.90
67750;DHT22;54550;48.838;8.828;2023-12-29T08:51:20;7.90;99.90
67750;DHT22;54550;48.838;8.828;2023-12-29T08:53:46;7.90;99.90
67750;DHT22;54550;48.838;8.828;2023-12-29T08:56:11;7.90;99.90
67750;DHT22;54550;48.838;8.828;2023-12-29T08:58:36;7.90;99.90
67750;DHT22;54550;48.838;8.828;2023-12-29T09:01:02;7.80;99.90
67750;DHT22;54550;48.838;8.828;2023-12-29T09:03:27;7.80;99.90
67750;DHT22;54550;48.838;8.828;2023-12-29T09:05:53;7.80;99.90
67750;DHT22;54550;48.838;8.828;2023-12-29T09:08:19;7.80;99.90
67750;DHT22;54550;48.838;8.828;2023-12-29T09:10:45;7.80;99.90
67750;DHT22;54550;48.838;8.828;2023-12-29T09:13:10;7.80;99.90
67750;DHT22;54550;48.838;8.828;2023-12-29T09:15:35;7.80;99.90
67750;DHT22;54550;48.838;8.828;2023-12-29T09:18:01;7.90;99.90
67750;DHT22;54550;48.838;8.828;2023-12-29T09:20:26;7.90;99.90
67750;DHT22;54550;48.838;8.828;2023-12-29T09:22:52;7.90;99.90
67750;DHT22;54550;48.838;8.828;2023-12-29T09:25:19;7.90;99.90
67750;DHT22;54550;48.838;8.828;2023-12-29T09:27:44;7.90;99.90
67750;DHT22;54550;48.838;8.828;2023-12-29T09:30:10;7.90;99.90
67750;DHT22;54550;48.838;8.828;2023-12-29T09:32:35;7.90;99.90
67750;DHT22;54550;48.838;8.828;2023-12-29T09:35:01;7.90;99.90
67750;DHT22;54550;48.838;8.828;2023-12-29T09:37:26;8.00;99.90
67750;DHT22;54550;48.838;8.828;2023-12-29T09:39:51;7.90;99.90
67750;DHT22;54550;48.838;8.828;2023-12-29T09:42:20;7.90;99.90
67750;DHT22;54550;48.838;8.828;2023-12-29T09:44:47;7.90;99.90
67750;DHT22;54550;48.838;8.828;2023-12-29T09:47:14;7.90;99.90
67750;DHT22;54550;48.838;8.828;2023-12-29T09:49:42;7.90;99.90
67750;DHT22;54550;48.838;8.828;2023-12-29T09:52:09;7.90;99.90
67750;DHT22;54550;48.838;8.828;2023-12-29T09:54:35;8.00;99.90
67750;DHT22;54550;48.838;8.828;2023-12-29T09:57:00;8.00;99.90
67750;DHT22;54550;48.838;8.828;2023-12-29T09:59:26;8.10;99.90
67750;DHT22;54550;48.838;8.828;2023-12-29T10:01:53;8.40;99.90
67750;DHT22;54550;48.838;8.828;2023-12-29T10:04:19;8.50;99.90
67750;DHT22;54550;48.838;8.828;2023-12-29T10:06:44;8.60;99.90
67750;DHT22;54550;48.838;8.828;2023-12-29T10:09:12;8.70;99.90
67750;DHT22;54550;48.838;8.828;2023-12-29T10:11:39;8.80;99.90
67750;DHT22;54550;48.838;8.828;2023-12-29T10:14:14;9.00;99.90
67750;DHT22;54550;48.838;8.828;2023-12-29T10:16:44;9.40;99.90
67750;DHT22;54550;48.838;8.828;2023-12-29T10:19:15;9.60;99.90
67750;DHT22;54550;48.838;8.828;2023-12-29T10:21:52;9.80;99.90
67750;DHT22;54550;48.838;8.828;2023-12-29T10:24:21;10.00;99.90
67750;DHT22;54550;48.838;8.828;2023-12-29T10:26:46;10.10;99.90
67750;DHT22;54550;48.838;8.828;2023-12-29T10:29:12;10.30;99.90
67750;DHT22;54550;48.838;8.828;2023-12-29T10:31:38;10.30;99.90
67750;DHT22;54550;48.838;8.828;2023-12-29T10:36:53;10.60;99.90
67750;DHT22;54550;48.838;8.828;2023-12-29T10:39:19;10.70;99.90
67750;DHT22;54550;48.838;8.828;2023-12-29T10:41:44;10.70;99.90
67750;DHT22;54550;48.838;8.828;2023-12-29T10:44:10;10.70;99.90
67750;DHT22;54550;48.838;8.828;2023-12-29T10:46:35;10.70;99.90
67750;DHT22;54550;48.838;8.828;2023-12-29T10:49:08;10.70;99.90
67750;DHT22;54550;48.838;8.828;2023-12-29T10:51:34;10.80;99.90
67750;DHT22;54550;48.838;8.828;2023-12-29T10:54:00;11.00;99.90
67750;DHT22;54550;48.838;8.828;2023-12-29T10:56:25;11.10;99.90
67750;DHT22;54550;48.838;8.828;2023-12-29T10:59:04;10.90;99.90
67750;DHT22;54550;48.838;8.828;2023-12-29T11:01:30;11.10;99.90
67750;DHT22;54550;48.838;8.828;2023-12-29T11:03:59;11.10;99.90
67750;DHT22;54550;48.838;8.828;2023-12-29T11:06:26;11.20;99.90
67750;DHT22;54550;48.838;8.828;2023-12-29T11:08:51;11.00;99.90
67750;DHT22;54550;48.838;8.828;2023-12-29T11:11:17;10.90;99.90
67750;DHT22;54550;48.838;8.828;2023-12-29T11:13:42;11.00;99.90
67750;DHT22;54550;48.838;8.828;2023-12-29T11:16:08;11.10;99.90
67750;DHT22;54550;48.838;8.828;2023-12-29T11:18:34;11.10;99.90
67750;DHT22;54550;48.838;8.828;2023-12-29T11:21:01;11.00;99.90
67750;DHT22;54550;48.838;8.828;2023-12-29T11:23:28;11.20;99.90
67750;DHT22;54550;48.838;8.828;2023-12-29T11:25:53;11.20;99.90
67750;DHT22;54550;48.838;8.828;2023-12-29T11:28:19;11.20;99.90
67750;DHT22;54550;48.838;8.828;2023-12-29T11:30:45;11.10;99.90
67750;DHT22;54550;48.838;8.828;2023-12-29T11:35:50;11.10;99.90
67750;DHT22;54550;48.838;8.828;2023-12-29T11:38:24;10.90;99.90
67750;DHT22;54550;48.838;8.828;2023-12-29T11:41:09;11.20;99.90
67750;DHT22;54550;48.838;8.828;2023-12-29T11:43:36;11.30;99.90
67750;DHT22;54550;48.838;8.828;2023-12-29T11:46:02;11.20;99.90
67750;DHT22;54550;48.838;8.828;2023-12-29T11:51:26;11.00;99.90
67750;DHT22;54550;48.838;8.828;2023-12-29T11:53:52;10.90;99.90
67750;DHT22;54550;48.838;8.828;2023-12-29T11:56:17;10.90;99.90
67750;DHT22;54550;48.838;8.828;2023-12-29T11:58:43;11.00;99.90
67750;DHT22;54550;48.838;8.828;2023-12-29T12:01:08;10.90;99.90
67750;DHT22;54550;48.838;8.828;2023-12-29T12:03:34;11.00;99.90
67750;DHT22;54550;48.838;8.828;2023-12-29T12:06:00;10.90;99.90
67750;DHT22;54550;48.838;8.828;2023-12-29T12:10:57;11.00;99.90
67750;DHT22;54550;48.838;8.828;2023-12-29T12:13:45;11.10;99.90
67750;DHT22;54550;48.838;8.828;2023-12-29T12:18:55;10.90;99.90
67750;DHT22;54550;48.838;8.828;2023-12-29T12:21:22;10.60;99.90
67750;DHT22;54550;48.838;8.828;2023-12-29T12:23:49;10.60;99.90
67750;DHT22;54550;48.838;8.828;2023-12-29T12:26:15;10.60;99.90
67750;DHT22;54550;48.838;8.828;2023-12-29T12:28:40;10.60;99.90
67750;DHT22;54550;48.838;8.828;2023-12-29T12:31:09;10.60;99.90
67750;DHT22;54550;48.838;8.828;2023-12-29T12:33:37;10.60;99.90
67750;DHT22;54550;48.838;8.828;2023-12-29T12:36:03;10.60;99.90
67750;DHT22;54550;48.838;8.828;2023-12-29T12:38:29;10.60;99.90
67750;DHT22;54550;48.838;8.828;2023-12-29T12:40:57;10.70;99.90
67750;DHT22;54550;48.838;8.828;2023-12-29T12:43:23;10.80;99.90
67750;DHT22;54550;48.838;8.828;2023-12-29T12:45:54;10.70;99.90
67750;DHT22;54550;48.838;8.828;2023-12-29T12:48:22;10.70;99.90
67750;DHT22;54550;48.838;8.828;2023-12-29T12:50:48;10.70;99.90
67750;DHT22;54550;48.838;8.828;2023-12-29T12:53:14;10.60;99.90
67750;DHT22;54550;48.838;8.828;2023-12-29T12:55:46;10.70;99.90
67750;DHT22;54550;48.838;8.828;2023-12-29T12:58:12;10.70;99.90
67750;DHT22;54550;48.838;8.828;2023-12-29T13:00:39;10.60;99.90
67750;DHT22;54550;48.838;8.828;2023-12-29T13:03:05;10.50;99.90
67750;DHT22;54550;48.838;8.828;2023-12-29T13:05:30;10.40;99.90
67750;DHT22;54550;48.838;8.828;2023-12-29T13:07:56;10.30;99.90
67750;DHT22;54550;48.838;8.828;2023-12-29T13:10:22;10.40;99.90
67750;DHT22;54550;48.838;8.828;2023-12-29T13:12:54;10.30;99.90
67750;DHT22;54550;48.838;8.828;2023-12-29T13:15:20;10.30;99.90
67750;DHT22;54550;48.838;8.828;2023-12-29T13:17:54;10.30;99.90
67750;DHT22;54550;48.838;8.828;2023-12-29T13:20:20;10.30;99.90
67750;DHT22;54550;48.838;8.828;2023-12-29T13:22:49;10.30;99.90
67750;DHT22;54550;48.838;8.828;2023-12-29T13:25:24;10.20;99.90
67750;DHT22;54550;48.838;8.828;2023-12-29T13:27:50;10.20;99.90
67750;DHT22;54550;48.838;8.828;2023-12-29T13:30:17;10.10;99.90
67750;DHT22;54550;48.838;8.828;2023-12-29T13:32:43;10.20;99.90
67750;DHT22;54550;48.838;8.828;2023-12-29T13:35:11;10.10;99.90
67750;DHT22;54550;48.838;8.828;2023-12-29T13:40:26;10.10;99.90
67750;DHT22;54550;48.838;8.828;2023-12-29T13:42:54;10.00;99.90
67750;DHT22;54550;48.838;8.828;2023-12-29T13:45:20;10.00;99.90
67750;DHT22;54550;48.838;8.828;2023-12-29T13:47:46;9.90;99.90
67750;DHT22;54550;48.838;8.828;2023-12-29T13:50:12;9.90;99.90
67750;DHT22;54550;48.838;8.828;2023-12-29T13:52:37;10.00;99.90
67750;DHT22;54550;48.838;8.828;2023-12-29T13:55:03;9.90;99.90
67750;DHT22;54550;48.838;8.828;2023-12-29T13:57:29;10.00;99.90
67750;DHT22;54550;48.838;8.828;2023-12-29T13:59:55;10.00;99.90
67750;DHT22;54550;48.838;8.828;2023-12-29T14:02:26;10.00;99.90
67750;DHT22;54550;48.838;8.828;2023-12-29T14:05:11;9.90;99.90
67750;DHT22;54550;48.838;8.828;2023-12-29T14:07:37;9.80;99.90
67750;DHT22;54550;48.838;8.828;2023-12-29T14:10:09;9.80;99.90
67750;DHT22;54550;48.838;8.828;2023-12-29T14:12:35;9.70;99.90
67750;DHT22;54550;48.838;8.828;2023-12-29T14:15:04;9.70;99.90
67750;DHT22;54550;48.838;8.828;2023-12-29T14:17:29;9.70;99.90
67750;DHT22;54550;48.838;8.828;2023-12-29T14:19:55;9.70;99.90
67750;DHT22;54550;48.838;8.828;2023-12-29T14:22:21;9.60;99.90
67750;DHT22;54550;48.838;8.828;2023-12-29T14:24:59;9.60;99.90
67750;DHT22;54550;48.838;8.828;2023-12-29T14:27:24;9.50;99.90
67750;DHT22;54550;48.838;8.828;2023-12-29T14:29:50;9.50;99.90
67750;DHT22;54550;48.838;8.828;2023-12-29T14:32:15;9.60;99.90
67750;DHT22;54550;48.838;8.828;2023-12-29T14:34:41;9.70;99.90
67750;DHT22;54550;48.838;8.828;2023-12-29T14:37:06;9.90;99.90
67750;DHT22;54550;48.838;8.828;2023-12-29T14:39:32;10.00;99.90
67750;DHT22;54550;48.838;8.828;2023-12-29T14:41:57;10.00;99.90
67750;DHT22;54550;48.838;8.828;2023-12-29T14:44:23;10.00;99.90
67750;DHT22;54550;48.838;8.828;2023-12-29T14:46:49;10.00;99.90
67750;DHT22;54550;48.838;8.828;2023-12-29T14:49:14;9.90;99.90
67750;DHT22;54550;48.838;8.828;2023-12-29T14:51:40;9.80;99.90
67750;DHT22;54550;48.838;8.828;2023-12-29T14:54:05;9.80;99.90
67750;DHT22;54550;48.838;8.828;2023-12-29T14:56:31;9.70;99.90
67750;DHT22;54550;48.838;8.828;2023-12-29T14:58:56;9.70;99.90
67750;DHT22;54550;48.838;8.828;2023-12-29T15:01:22;9.60;99.90
67750;DHT22;54550;48.838;8.828;2023-12-29T15:03:48;9.50;99.90
67750;DHT22;54550;48.838;8.828;2023-12-29T15:06:13;9.50;99.90
67750;DHT22;54550;48.838;8.828;2023-12-29T15:08:39;9.50;99.90
67750;DHT22;54550;48.838;8.828;2023-12-29T15:11:05;9.50;99.90
67750;DHT22;54550;48.838;8.828;2023-12-29T15:13:31;9.40;99.90
67750;DHT22;54550;48.838;8.828;2023-12-29T15:15:57;9.40;99.90
67750;DHT22;54550;48.838;8.828;2023-12-29T15:18:24;9.40;99.90
67750;DHT22;54550;48.838;8.828;2023-12-29T15:20:50;9.40;99.90
67750;DHT22;54550;48.838;8.828;2023-12-29T15:23:16;9.40;99.90
67750;DHT22;54550;48.838;8.828;2023-12-29T15:25:41;9.40;99.90
67750;DHT22;54550;48.838;8.828;2023-12-29T15:28:07;9.30;99.90
67750;DHT22;54550;48.838;8.828;2023-12-29T15:30:33;9.30;99.90
67750;DHT22;54550;48.838;8.828;2023-12-29T15:32:58;9.30;99.90
67750;DHT22;54550;48.838;8.828;2023-12-29T15:35:24;9.20;99.90
67750;DHT22;54550;48.838;8.828;2023-12-29T15:37:49;9.20;99.90
67750;DHT22;54550;48.838;8.828;2023-12-29T15:40:15;9.20;99.90
67750;DHT22;54550;48.838;8.828;2023-12-29T15:42:40;9.20;99.90
67750;DHT22;54550;48.838;8.828;2023-12-29T15:45:06;9.10;99.90
67750;DHT22;54550;48.838;8.828;2023-12-29T15:47:31;9.10;99.90
67750;DHT22;54550;48.838;8.828;2023-12-29T15:49:57;9.10;99.90
67750;DHT22;54550;48.838;8.828;2023-12-29T15:52:22;9.10;99.90